Flight Track Log - Related Links

Times and Time Zones

All times are in EDT time to prevent confusion due to time zone crossing. See the SKQ221 flight status page for this flight to view local times or setup timezone preferences in your user account.

Time Position Orientation Groundspeed Altitude Reporting Facility
EDT Latitude Longitude Course Direction KTS MPH feet Rate Location/Type
Mon 10:41:35 PM 40.0853 -83.0478 54° Northeast 112 129 1,800  Level Indianapolis Center
Mon 10:42:41 PM 40.1089 -83.0094 51° Northeast 117 135 3,100 857 Climbing Indianapolis Center
Mon 10:43:06 PM 40.1128 -82.9947 71° East 120 138 3,100 -98 Level Indianapolis Center
Mon 10:43:42 PM 40.1061 -82.9575 103° East 163 188 3,000 -98 Descending Indianapolis Center
Mon 10:44:07 PM 40.1053 -82.9361 93° East 145 167 3,000  Level Indianapolis Center
Mon 10:44:43 PM 40.1014 -82.9025 99° East 160 184 3,000  Level Indianapolis Center
Mon 10:45:08 PM 40.0992 -82.8811 98° East 153 176 3,000 300 Level Indianapolis Center
Mon 10:45:43 PM 40.0967 -82.8472 95° East 149 171 3,300 590 Climbing Indianapolis Center
Mon 10:46:09 PM 40.0942 -82.8272 99° East 151 174 3,600 980 Climbing Indianapolis Center
Mon 10:46:32 PM 40.0933 -82.8033 93° East 140 161 4,100 885 Climbing Indianapolis Center
Mon 10:47:10 PM 40.0903 -82.7778 99° East 144 166 4,500 788 Climbing Indianapolis Center
Mon 10:48:11 PM 40.0833 -82.7303 101° East 135 155 5,400 857 Climbing Indianapolis Center
Mon 10:48:34 PM 40.0789 -82.7064 104° East 139 160 5,700 871 Climbing Indianapolis Center
Mon 10:49:13 PM 40.0761 -82.6772 97° East 145 167 6,300 900 Climbing Indianapolis Center
Mon 10:49:34 PM 40.0717 -82.6567 106° East 145 167 6,600 689 Climbing Indianapolis Center
Mon 10:50:14 PM 40.0681 -82.6258 99° East 145 167 7,000 492 Climbing Indianapolis Center
Mon 10:50:35 PM 40.0647 -82.6014 100° East 150 173 7,100 98 Climbing Indianapolis Center
Mon 10:51:15 PM 40.0592 -82.5672 102° East 159 183 7,100 -109 Level Indianapolis Center
Mon 10:51:30 PM 40.0558 -82.5458 102° East 169 194 7,000 -98 Descending Indianapolis Center
Mon 10:52:16 PM 40.0497 -82.5078 102° East 165 190 7,000  Level Indianapolis Center
Mon 10:52:31 PM 40.0467 -82.4906 103° East 167 192 7,000  Level Indianapolis Center
Mon 10:53:18 PM 40.0414 -82.4492 99° East 164 189 7,000 56 Level Indianapolis Center
Mon 10:54:19 PM 40.0319 -82.3903 102° East 164 189 7,100 33 Climbing Indianapolis Center
Mon 10:56:21 PM 40.0125 -82.2586 101° East 165 190 7,100 -33 Level Indianapolis Center
Mon 10:57:23 PM 40.0039 -82.1967 100° East 169 194 7,000 -49 Descending Indianapolis Center
Mon 10:58:24 PM 39.9947 -82.1367 101° East 169 194 7,000  Level Indianapolis Center
Mon 10:59:25 PM 39.9858 -82.0756 101° East 169 194 7,000 49 Level Indianapolis Center
Mon 11:00:26 PM 39.9767 -82.0147 101° East 169 194 7,100 49 Climbing Indianapolis Center
Mon 11:01:28 PM 39.9664 -81.9542 102° East 172 198 7,100 -49 Level Indianapolis Center
Mon 11:02:29 PM 39.9581 -81.8928 100° East 170 196 7,000  Descending Indianapolis Center
Mon 11:03:30 PM 39.9492 -81.8317 101° East 171 197 7,100  Climbing Indianapolis Center
Mon 11:04:31 PM 39.9397 -81.7706 101° East 171 197 7,000 -49 Descending Indianapolis Center
Mon 11:05:33 PM 39.9311 -81.7108 101° East 168 193 7,000  Level Indianapolis Center
Mon 11:06:34 PM 39.9219 -81.6533 102° East 162 186 7,000  Level Indianapolis Center
Mon 11:07:35 PM 39.9125 -81.5936 102° East 164 189 7,000  Level Indianapolis Center
Mon 11:08:36 PM 39.9042 -81.5347 100° East 165 190 7,000  Level Indianapolis Center
Mon 11:09:38 PM 39.8942 -81.4756 102° East 166 191 7,000  Level Indianapolis Center
Mon 11:10:39 PM 39.8839 -81.4081 101° East 166 191 7,000  Level Indianapolis Center
Mon 11:11:40 PM 39.8747 -81.3486 101° East 166 191 7,000  Level Indianapolis Center
Mon 11:12:24 PM 39.8731 -81.3053 93° East 166 191 7,000  Level Cleveland Center
Mon 11:13:24 PM 39.8650 -81.2483 100° East 166 191 7,000  Level Cleveland Center
Mon 11:14:24 PM 39.8550 -81.1861 102° East 160 184 7,000  Level Cleveland Center
Mon 11:15:24 PM 39.8450 -81.1267 102° East 160 184 7,000  Level Cleveland Center
Mon 11:16:24 PM 39.8347 -81.0642 102° East 165 190 7,000  Level Cleveland Center
Mon 11:17:24 PM 39.8244 -81.0019 102° East 165 190 7,000  Level Cleveland Center
Mon 11:18:24 PM 39.8144 -80.9425 102° East 165 190 7,000 50 Level Cleveland Center
Mon 11:19:24 PM 39.8042 -80.8803 102° East 165 190 7,100  Climbing Cleveland Center
Mon 11:20:24 PM 39.7981 -80.8208 98° East 165 190 7,000  Descending Cleveland Center
Mon 11:21:24 PM 39.7856 -80.7642 106° East 165 190 7,100  Climbing Cleveland Center
Mon 11:22:24 PM 39.7753 -80.7047 103° East 160 184 7,000 -50 Descending Cleveland Center
Mon 11:23:24 PM 39.7692 -80.6478 98° East 160 184 7,000  Level Cleveland Center
Mon 11:24:24 PM 39.7586 -80.5911 104° East 160 184 7,000  Level Cleveland Center
Mon 11:25:24 PM 39.7503 -80.5292 100° East 160 184 7,000 -150 Level Cleveland Center
Mon 11:26:24 PM 39.7397 -80.4697 103° East 160 184 6,700 -450 Descending Cleveland Center
Mon 11:27:24 PM 39.7294 -80.4103 103° East 160 184 6,100 -850 Descending Cleveland Center
Mon 11:28:24 PM 39.7189 -80.3456 102° East 165 190 5,000 -1,100 Descending Cleveland Center

Login

Don't have an account? Register now (free) for customized features, flight alerts, and more!